sensor_id;sensor_type;location;lat;lon;timestamp;P1;durP1;ratioP1;P2;durP2;ratioP2
57467;SDS011;43311;51.196;7.518;2024-02-15T00:00:55;3.92;;;3.25;;
57467;SDS011;43311;51.196;7.518;2024-02-15T00:03:23;3.53;;;2.80;;
57467;SDS011;43311;51.196;7.518;2024-02-15T00:05:48;5.25;;;3.95;;
57467;SDS011;43311;51.196;7.518;2024-02-15T00:08:14;5.78;;;3.95;;
57467;SDS011;43311;51.196;7.518;2024-02-15T00:10:40;5.70;;;3.55;;
57467;SDS011;43311;51.196;7.518;2024-02-15T00:13:05;5.03;;;3.97;;
57467;SDS011;43311;51.196;7.518;2024-02-15T00:15:31;6.78;;;4.20;;
57467;SDS011;43311;51.196;7.518;2024-02-15T00:17:57;6.70;;;4.40;;
57467;SDS011;43311;51.196;7.518;2024-02-15T00:20:22;6.68;;;4.30;;
57467;SDS011;43311;51.196;7.518;2024-02-15T00:22:47;9.27;;;4.38;;
57467;SDS011;43311;51.196;7.518;2024-02-15T00:25:13;9.00;;;5.03;;
57467;SDS011;43311;51.196;7.518;2024-02-15T00:27:39;5.63;;;4.57;;
57467;SDS011;43311;51.196;7.518;2024-02-15T00:30:04;5.72;;;4.28;;
57467;SDS011;43311;51.196;7.518;2024-02-15T00:32:32;5.47;;;4.33;;
57467;SDS011;43311;51.196;7.518;2024-02-15T00:35:02;4.78;;;3.83;;
57467;SDS011;43311;51.196;7.518;2024-02-15T00:37:27;8.20;;;5.32;;
57467;SDS011;43311;51.196;7.518;2024-02-15T00:39:53;5.32;;;4.50;;
57467;SDS011;43311;51.196;7.518;2024-02-15T00:42:18;7.47;;;5.00;;
57467;SDS011;43311;51.196;7.518;2024-02-15T00:44:44;6.13;;;3.95;;
57467;SDS011;43311;51.196;7.518;2024-02-15T00:47:09;5.97;;;3.90;;
57467;SDS011;43311;51.196;7.518;2024-02-15T00:49:36;5.50;;;3.67;;
57467;SDS011;43311;51.196;7.518;2024-02-15T00:52:02;3.95;;;3.35;;
57467;SDS011;43311;51.196;7.518;2024-02-15T00:54:27;4.40;;;3.40;;
57467;SDS011;43311;51.196;7.518;2024-02-15T00:56:52;6.57;;;3.38;;
57467;SDS011;43311;51.196;7.518;2024-02-15T00:59:18;4.60;;;3.60;;
57467;SDS011;43311;51.196;7.518;2024-02-15T01:01:43;4.05;;;3.22;;
57467;SDS011;43311;51.196;7.518;2024-02-15T01:04:09;4.25;;;3.35;;
57467;SDS011;43311;51.196;7.518;2024-02-15T01:06:35;3.63;;;2.53;;
57467;SDS011;43311;51.196;7.518;2024-02-15T01:09:01;4.15;;;2.92;;
57467;SDS011;43311;51.196;7.518;2024-02-15T01:11:28;4.45;;;2.85;;
57467;SDS011;43311;51.196;7.518;2024-02-15T01:13:55;3.75;;;3.10;;
57467;SDS011;43311;51.196;7.518;2024-02-15T01:16:20;5.75;;;3.40;;
57467;SDS011;43311;51.196;7.518;2024-02-15T01:18:46;5.80;;;3.67;;
57467;SDS011;43311;51.196;7.518;2024-02-15T01:21:12;4.82;;;3.38;;
57467;SDS011;43311;51.196;7.518;2024-02-15T01:23:37;4.80;;;3.53;;
57467;SDS011;43311;51.196;7.518;2024-02-15T01:26:03;5.80;;;3.85;;
57467;SDS011;43311;51.196;7.518;2024-02-15T01:28:30;6.22;;;4.25;;
57467;SDS011;43311;51.196;7.518;2024-02-15T01:30:55;8.30;;;5.00;;
57467;SDS011;43311;51.196;7.518;2024-02-15T01:33:20;6.82;;;5.10;;
57467;SDS011;43311;51.196;7.518;2024-02-15T01:35:46;8.65;;;5.85;;
57467;SDS011;43311;51.196;7.518;2024-02-15T01:38:11;9.93;;;6.07;;
57467;SDS011;43311;51.196;7.518;2024-02-15T01:40:37;10.30;;;6.75;;
57467;SDS011;43311;51.196;7.518;2024-02-15T01:43:03;10.18;;;7.13;;
57467;SDS011;43311;51.196;7.518;2024-02-15T01:45:28;11.70;;;7.93;;
57467;SDS011;43311;51.196;7.518;2024-02-15T01:47:54;11.93;;;6.85;;
57467;SDS011;43311;51.196;7.518;2024-02-15T01:50:20;11.95;;;7.68;;
57467;SDS011;43311;51.196;7.518;2024-02-15T01:52:47;15.57;;;8.25;;
57467;SDS011;43311;51.196;7.518;2024-02-15T01:55:17;17.05;;;9.23;;
57467;SDS011;43311;51.196;7.518;2024-02-15T01:57:43;12.30;;;8.32;;
57467;SDS011;43311;51.196;7.518;2024-02-15T02:00:12;15.23;;;9.18;;
57467;SDS011;43311;51.196;7.518;2024-02-15T02:02:39;14.98;;;8.90;;
57467;SDS011;43311;51.196;7.518;2024-02-15T02:05:07;14.40;;;8.25;;
57467;SDS011;43311;51.196;7.518;2024-02-15T02:07:33;12.98;;;8.35;;
57467;SDS011;43311;51.196;7.518;2024-02-15T02:09:58;17.77;;;9.65;;
57467;SDS011;43311;51.196;7.518;2024-02-15T02:12:24;13.68;;;8.35;;
57467;SDS011;43311;51.196;7.518;2024-02-15T02:14:52;16.75;;;8.80;;
57467;SDS011;43311;51.196;7.518;2024-02-15T02:17:19;15.43;;;9.70;;
57467;SDS011;43311;51.196;7.518;2024-02-15T02:19:45;15.13;;;9.90;;
57467;SDS011;43311;51.196;7.518;2024-02-15T02:22:11;13.05;;;8.70;;
57467;SDS011;43311;51.196;7.518;2024-02-15T02:24:40;12.00;;;7.90;;
57467;SDS011;43311;51.196;7.518;2024-02-15T02:27:13;10.38;;;6.50;;
57467;SDS011;43311;51.196;7.518;2024-02-15T02:29:43;12.10;;;7.32;;
57467;SDS011;43311;51.196;7.518;2024-02-15T02:32:11;12.07;;;7.07;;
57467;SDS011;43311;51.196;7.518;2024-02-15T02:34:37;16.63;;;7.60;;
57467;SDS011;43311;51.196;7.518;2024-02-15T02:37:03;11.63;;;7.40;;
57467;SDS011;43311;51.196;7.518;2024-02-15T02:39:30;11.00;;;7.80;;
57467;SDS011;43311;51.196;7.518;2024-02-15T02:41:56;10.98;;;7.55;;
57467;SDS011;43311;51.196;7.518;2024-02-15T02:44:22;14.02;;;7.45;;
57467;SDS011;43311;51.196;7.518;2024-02-15T02:46:47;15.52;;;7.93;;
57467;SDS011;43311;51.196;7.518;2024-02-15T02:49:13;13.15;;;7.40;;
57467;SDS011;43311;51.196;7.518;2024-02-15T02:51:38;16.70;;;7.85;;
57467;SDS011;43311;51.196;7.518;2024-02-15T02:54:04;13.30;;;8.00;;
57467;SDS011;43311;51.196;7.518;2024-02-15T02:56:31;13.00;;;8.00;;
57467;SDS011;43311;51.196;7.518;2024-02-15T02:58:57;19.77;;;7.95;;
57467;SDS011;43311;51.196;7.518;2024-02-15T03:01:23;14.38;;;8.55;;
57467;SDS011;43311;51.196;7.518;2024-02-15T03:03:51;13.95;;;8.52;;
57467;SDS011;43311;51.196;7.518;2024-02-15T03:06:20;15.73;;;8.57;;
57467;SDS011;43311;51.196;7.518;2024-02-15T03:08:45;14.63;;;8.18;;
57467;SDS011;43311;51.196;7.518;2024-02-15T03:11:11;16.42;;;7.80;;
57467;SDS011;43311;51.196;7.518;2024-02-15T03:13:37;16.20;;;8.32;;
57467;SDS011;43311;51.196;7.518;2024-02-15T03:16:02;11.93;;;8.10;;
57467;SDS011;43311;51.196;7.518;2024-02-15T03:18:30;17.13;;;8.50;;
57467;SDS011;43311;51.196;7.518;2024-02-15T03:20:57;14.32;;;8.48;;
57467;SDS011;43311;51.196;7.518;2024-02-15T03:23:22;12.98;;;7.32;;
57467;SDS011;43311;51.196;7.518;2024-02-15T03:25:47;12.73;;;6.97;;
57467;SDS011;43311;51.196;7.518;2024-02-15T03:28:14;12.30;;;7.10;;
57467;SDS011;43311;51.196;7.518;2024-02-15T03:30:40;10.75;;;6.25;;
57467;SDS011;43311;51.196;7.518;2024-02-15T03:33:08;14.88;;;6.68;;
57467;SDS011;43311;51.196;7.518;2024-02-15T03:35:33;10.13;;;6.63;;
57467;SDS011;43311;51.196;7.518;2024-02-15T03:37:59;9.82;;;6.22;;
57467;SDS011;43311;51.196;7.518;2024-02-15T03:40:24;17.10;;;6.07;;
57467;SDS011;43311;51.196;7.518;2024-02-15T03:42:51;16.85;;;9.50;;
57467;SDS011;43311;51.196;7.518;2024-02-15T03:45:17;10.88;;;6.43;;
57467;SDS011;43311;51.196;7.518;2024-02-15T03:47:43;10.35;;;5.05;;
57467;SDS011;43311;51.196;7.518;2024-02-15T03:50:08;10.07;;;6.18;;
57467;SDS011;43311;51.196;7.518;2024-02-15T03:52:34;11.55;;;5.47;;
57467;SDS011;43311;51.196;7.518;2024-02-15T03:55:00;10.88;;;5.03;;
57467;SDS011;43311;51.196;7.518;2024-02-15T03:57:27;9.95;;;5.43;;
57467;SDS011;43311;51.196;7.518;2024-02-15T03:59:53;8.65;;;5.00;;
57467;SDS011;43311;51.196;7.518;2024-02-15T04:02:19;6.90;;;4.47;;
57467;SDS011;43311;51.196;7.518;2024-02-15T04:04:45;8.63;;;4.63;;
57467;SDS011;43311;51.196;7.518;2024-02-15T04:07:15;10.40;;;5.45;;
57467;SDS011;43311;51.196;7.518;2024-02-15T04:09:44;9.07;;;4.80;;
57467;SDS011;43311;51.196;7.518;2024-02-15T04:12:10;8.85;;;5.20;;
57467;SDS011;43311;51.196;7.518;2024-02-15T04:14:36;9.63;;;5.70;;
57467;SDS011;43311;51.196;7.518;2024-02-15T04:17:03;6.47;;;4.20;;
57467;SDS011;43311;51.196;7.518;2024-02-15T04:19:30;8.27;;;3.78;;
57467;SDS011;43311;51.196;7.518;2024-02-15T04:21:56;11.23;;;4.63;;
57467;SDS011;43311;51.196;7.518;2024-02-15T04:24:21;11.23;;;4.35;;
57467;SDS011;43311;51.196;7.518;2024-02-15T04:26:48;8.52;;;4.20;;
57467;SDS011;43311;51.196;7.518;2024-02-15T04:29:14;6.72;;;3.92;;
57467;SDS011;43311;51.196;7.518;2024-02-15T04:31:40;6.35;;;4.10;;
57467;SDS011;43311;51.196;7.518;2024-02-15T04:34:07;8.07;;;4.00;;
57467;SDS011;43311;51.196;7.518;2024-02-15T04:36:34;7.50;;;4.40;;
57467;SDS011;43311;51.196;7.518;2024-02-15T04:39:01;7.85;;;4.32;;
57467;SDS011;43311;51.196;7.518;2024-02-15T04:43:55;7.70;;;4.03;;
57467;SDS011;43311;51.196;7.518;2024-02-15T04:46:20;9.70;;;4.13;;
57467;SDS011;43311;51.196;7.518;2024-02-15T04:48:46;7.53;;;4.18;;
57467;SDS011;43311;51.196;7.518;2024-02-15T04:51:14;7.28;;;3.72;;
57467;SDS011;43311;51.196;7.518;2024-02-15T04:53:41;9.50;;;3.95;;
57467;SDS011;43311;51.196;7.518;2024-02-15T04:56:06;7.78;;;3.85;;
57467;SDS011;43311;51.196;7.518;2024-02-15T04:58:36;9.48;;;4.75;;
57467;SDS011;43311;51.196;7.518;2024-02-15T05:01:03;8.10;;;4.00;;
57467;SDS011;43311;51.196;7.518;2024-02-15T05:03:30;11.15;;;4.80;;
57467;SDS011;43311;51.196;7.518;2024-02-15T05:05:59;11.45;;;4.63;;
57467;SDS011;43311;51.196;7.518;2024-02-15T05:08:25;16.58;;;5.30;;
57467;SDS011;43311;51.196;7.518;2024-02-15T05:10:51;11.00;;;4.82;;
57467;SDS011;43311;51.196;7.518;2024-02-15T05:13:21;10.95;;;4.68;;
57467;SDS011;43311;51.196;7.518;2024-02-15T05:15:47;8.23;;;4.78;;
57467;SDS011;43311;51.196;7.518;2024-02-15T05:18:12;10.35;;;4.43;;
57467;SDS011;43311;51.196;7.518;2024-02-15T05:20:38;7.95;;;4.35;;
57467;SDS011;43311;51.196;7.518;2024-02-15T05:23:05;8.90;;;4.80;;
57467;SDS011;43311;51.196;7.518;2024-02-15T05:25:31;11.25;;;4.55;;
57467;SDS011;43311;51.196;7.518;2024-02-15T05:27:58;12.82;;;4.60;;
57467;SDS011;43311;51.196;7.518;2024-02-15T05:30:23;11.73;;;5.70;;
57467;SDS011;43311;51.196;7.518;2024-02-15T05:32:49;10.95;;;4.65;;
57467;SDS011;43311;51.196;7.518;2024-02-15T05:35:15;10.13;;;5.18;;
57467;SDS011;43311;51.196;7.518;2024-02-15T05:37:40;7.45;;;4.30;;
57467;SDS011;43311;51.196;7.518;2024-02-15T05:40:06;12.60;;;6.78;;
57467;SDS011;43311;51.196;7.518;2024-02-15T05:42:32;9.18;;;5.72;;
57467;SDS011;43311;51.196;7.518;2024-02-15T05:45:14;8.98;;;4.90;;
57467;SDS011;43311;51.196;7.518;2024-02-15T05:47:54;8.40;;;4.40;;
57467;SDS011;43311;51.196;7.518;2024-02-15T05:50:20;10.57;;;5.10;;
57467;SDS011;43311;51.196;7.518;2024-02-15T05:52:46;7.70;;;4.65;;
57467;SDS011;43311;51.196;7.518;2024-02-15T05:55:12;8.48;;;4.60;;
57467;SDS011;43311;51.196;7.518;2024-02-15T05:57:42;9.93;;;5.55;;
57467;SDS011;43311;51.196;7.518;2024-02-15T06:00:10;11.52;;;5.28;;
57467;SDS011;43311;51.196;7.518;2024-02-15T06:02:36;8.38;;;5.32;;
57467;SDS011;43311;51.196;7.518;2024-02-15T06:05:01;8.73;;;5.20;;
57467;SDS011;43311;51.196;7.518;2024-02-15T06:07:29;10.50;;;4.53;;
57467;SDS011;43311;51.196;7.518;2024-02-15T06:09:57;12.43;;;5.07;;
57467;SDS011;43311;51.196;7.518;2024-02-15T06:12:22;12.63;;;5.45;;
57467;SDS011;43311;51.196;7.518;2024-02-15T06:14:48;14.40;;;5.80;;
57467;SDS011;43311;51.196;7.518;2024-02-15T06:17:13;11.63;;;4.82;;
57467;SDS011;43311;51.196;7.518;2024-02-15T06:19:39;9.68;;;6.35;;
57467;SDS011;43311;51.196;7.518;2024-02-15T06:22:05;16.25;;;8.57;;
57467;SDS011;43311;51.196;7.518;2024-02-15T06:24:30;11.90;;;5.63;;
57467;SDS011;43311;51.196;7.518;2024-02-15T06:26:55;11.02;;;6.18;;
57467;SDS011;43311;51.196;7.518;2024-02-15T06:29:25;13.63;;;6.95;;
57467;SDS011;43311;51.196;7.518;2024-02-15T06:32:09;11.07;;;5.88;;
57467;SDS011;43311;51.196;7.518;2024-02-15T06:34:53;11.10;;;5.20;;
57467;SDS011;43311;51.196;7.518;2024-02-15T06:37:38;7.75;;;5.30;;
57467;SDS011;43311;51.196;7.518;2024-02-15T06:40:22;15.30;;;7.22;;
57467;SDS011;43311;51.196;7.518;2024-02-15T06:42:48;12.80;;;6.93;;
57467;SDS011;43311;51.196;7.518;2024-02-15T06:45:14;17.40;;;8.00;;
57467;SDS011;43311;51.196;7.518;2024-02-15T06:47:43;14.43;;;5.57;;
57467;SDS011;43311;51.196;7.518;2024-02-15T06:50:15;13.43;;;6.55;;
57467;SDS011;43311;51.196;7.518;2024-02-15T06:52:42;16.85;;;6.28;;
57467;SDS011;43311;51.196;7.518;2024-02-15T06:55:08;13.73;;;7.25;;
57467;SDS011;43311;51.196;7.518;2024-02-15T06:57:34;12.45;;;6.57;;
57467;SDS011;43311;51.196;7.518;2024-02-15T07:00:06;12.15;;;6.80;;
57467;SDS011;43311;51.196;7.518;2024-02-15T07:02:39;13.93;;;4.90;;
57467;SDS011;43311;51.196;7.518;2024-02-15T07:05:04;19.80;;;6.25;;
57467;SDS011;43311;51.196;7.518;2024-02-15T07:07:31;17.40;;;6.57;;
57467;SDS011;43311;51.196;7.518;2024-02-15T07:09:57;12.95;;;5.40;;
57467;SDS011;43311;51.196;7.518;2024-02-15T07:12:22;7.47;;;4.90;;
57467;SDS011;43311;51.196;7.518;2024-02-15T07:14:48;13.45;;;5.13;;
57467;SDS011;43311;51.196;7.518;2024-02-15T07:17:13;8.85;;;4.70;;
57467;SDS011;43311;51.196;7.518;2024-02-15T07:19:45;9.68;;;4.78;;
57467;SDS011;43311;51.196;7.518;2024-02-15T07:22:14;10.48;;;4.85;;
57467;SDS011;43311;51.196;7.518;2024-02-15T07:24:40;10.60;;;5.20;;
57467;SDS011;43311;51.196;7.518;2024-02-15T07:27:07;8.90;;;4.57;;
57467;SDS011;43311;51.196;7.518;2024-02-15T07:29:33;13.80;;;6.07;;
57467;SDS011;43311;51.196;7.518;2024-02-15T07:32:03;20.85;;;10.57;;
57467;SDS011;43311;51.196;7.518;2024-02-15T07:34:29;14.55;;;6.30;;
57467;SDS011;43311;51.196;7.518;2024-02-15T07:39:24;11.02;;;5.10;;
57467;SDS011;43311;51.196;7.518;2024-02-15T07:41:52;12.75;;;4.80;;
57467;SDS011;43311;51.196;7.518;2024-02-15T07:46:43;19.15;;;6.07;;
57467;SDS011;43311;51.196;7.518;2024-02-15T07:49:10;15.02;;;6.00;;
57467;SDS011;43311;51.196;7.518;2024-02-15T07:51:36;11.02;;;5.07;;
57467;SDS011;43311;51.196;7.518;2024-02-15T07:54:02;13.65;;;6.95;;
57467;SDS011;43311;51.196;7.518;2024-02-15T07:56:28;16.75;;;6.70;;
57467;SDS011;43311;51.196;7.518;2024-02-15T07:58:53;11.13;;;4.22;;
57467;SDS011;43311;51.196;7.518;2024-02-15T08:01:19;14.82;;;7.38;;
57467;SDS011;43311;51.196;7.518;2024-02-15T08:06:14;10.00;;;4.25;;
57467;SDS011;43311;51.196;7.518;2024-02-15T08:08:41;10.82;;;4.70;;
57467;SDS011;43311;51.196;7.518;2024-02-15T08:11:07;14.77;;;4.38;;
57467;SDS011;43311;51.196;7.518;2024-02-15T08:13:43;10.13;;;4.20;;
57467;SDS011;43311;51.196;7.518;2024-02-15T08:16:09;15.40;;;5.72;;
57467;SDS011;43311;51.196;7.518;2024-02-15T08:18:36;12.70;;;4.32;;
57467;SDS011;43311;51.196;7.518;2024-02-15T08:21:02;8.23;;;3.72;;
57467;SDS011;43311;51.196;7.518;2024-02-15T08:23:29;8.50;;;4.45;;
57467;SDS011;43311;51.196;7.518;2024-02-15T08:25:54;13.32;;;5.75;;
57467;SDS011;43311;51.196;7.518;2024-02-15T08:28:20;7.85;;;3.72;;
57467;SDS011;43311;51.196;7.518;2024-02-15T08:30:45;11.15;;;4.20;;
57467;SDS011;43311;51.196;7.518;2024-02-15T08:33:12;15.25;;;5.45;;
57467;SDS011;43311;51.196;7.518;2024-02-15T08:35:37;13.93;;;3.97;;
57467;SDS011;43311;51.196;7.518;2024-02-15T08:38:05;15.13;;;6.22;;
57467;SDS011;43311;51.196;7.518;2024-02-15T08:40:31;9.38;;;3.80;;
57467;SDS011;43311;51.196;7.518;2024-02-15T08:42:56;10.88;;;5.00;;
57467;SDS011;43311;51.196;7.518;2024-02-15T08:45:22;10.27;;;4.57;;
57467;SDS011;43311;51.196;7.518;2024-02-15T08:47:48;13.50;;;5.07;;
57467;SDS011;43311;51.196;7.518;2024-02-15T08:50:17;7.22;;;3.72;;
57467;SDS011;43311;51.196;7.518;2024-02-15T08:52:43;7.55;;;4.28;;
57467;SDS011;43311;51.196;7.518;2024-02-15T08:55:09;7.65;;;3.65;;
57467;SDS011;43311;51.196;7.518;2024-02-15T08:57:36;9.88;;;5.10;;
57467;SDS011;43311;51.196;7.518;2024-02-15T09:00:03;6.93;;;3.53;;
57467;SDS011;43311;51.196;7.518;2024-02-15T09:02:44;7.25;;;3.92;;
57467;SDS011;43311;51.196;7.518;2024-02-15T09:05:10;9.00;;;4.10;;
57467;SDS011;43311;51.196;7.518;2024-02-15T09:07:39;7.95;;;3.97;;
57467;SDS011;43311;51.196;7.518;2024-02-15T09:10:09;8.43;;;4.10;;
57467;SDS011;43311;51.196;7.518;2024-02-15T09:12:35;8.63;;;4.47;;
57467;SDS011;43311;51.196;7.518;2024-02-15T09:15:07;9.07;;;4.47;;
57467;SDS011;43311;51.196;7.518;2024-02-15T09:17:33;9.75;;;3.95;;
57467;SDS011;43311;51.196;7.518;2024-02-15T09:20:05;8.32;;;4.60;;
57467;SDS011;43311;51.196;7.518;2024-02-15T09:22:32;9.95;;;4.85;;
57467;SDS011;43311;51.196;7.518;2024-02-15T09:24:57;15.27;;;4.60;;
57467;SDS011;43311;51.196;7.518;2024-02-15T09:27:23;10.85;;;4.97;;
57467;SDS011;43311;51.196;7.518;2024-02-15T09:29:48;11.73;;;4.45;;
57467;SDS011;43311;51.196;7.518;2024-02-15T09:32:13;11.10;;;3.78;;
57467;SDS011;43311;51.196;7.518;2024-02-15T09:34:40;11.02;;;5.88;;
57467;SDS011;43311;51.196;7.518;2024-02-15T09:37:05;8.68;;;4.18;;
57467;SDS011;43311;51.196;7.518;2024-02-15T09:39:31;14.25;;;5.53;;
57467;SDS011;43311;51.196;7.518;2024-02-15T09:41:56;10.60;;;5.20;;
57467;SDS011;43311;51.196;7.518;2024-02-15T09:44:24;9.70;;;5.43;;
57467;SDS011;43311;51.196;7.518;2024-02-15T09:47:05;9.40;;;5.20;;
57467;SDS011;43311;51.196;7.518;2024-02-15T09:49:37;7.18;;;4.45;;
57467;SDS011;43311;51.196;7.518;2024-02-15T09:52:07;11.75;;;4.57;;
57467;SDS011;43311;51.196;7.518;2024-02-15T09:54:40;10.52;;;5.38;;
57467;SDS011;43311;51.196;7.518;2024-02-15T09:59:38;14.55;;;5.22;;
57467;SDS011;43311;51.196;7.518;2024-02-15T10:02:05;12.20;;;5.25;;
57467;SDS011;43311;51.196;7.518;2024-02-15T10:04:36;12.48;;;4.28;;
57467;SDS011;43311;51.196;7.518;2024-02-15T10:07:02;13.18;;;4.15;;
57467;SDS011;43311;51.196;7.518;2024-02-15T10:09:28;14.43;;;4.40;;
57467;SDS011;43311;51.196;7.518;2024-02-15T10:11:55;9.25;;;3.83;;
57467;SDS011;43311;51.196;7.518;2024-02-15T10:14:22;11.10;;;3.83;;
57467;SDS011;43311;51.196;7.518;2024-02-15T10:16:48;9.57;;;3.25;;
57467;SDS011;43311;51.196;7.518;2024-02-15T10:19:13;13.75;;;4.38;;
57467;SDS011;43311;51.196;7.518;2024-02-15T10:21:40;6.63;;;2.97;;
57467;SDS011;43311;51.196;7.518;2024-02-15T10:24:06;11.05;;;3.00;;
57467;SDS011;43311;51.196;7.518;2024-02-15T10:26:32;11.23;;;4.35;;
57467;SDS011;43311;51.196;7.518;2024-02-15T10:29:09;12.30;;;3.75;;
57467;SDS011;43311;51.196;7.518;2024-02-15T10:31:36;9.95;;;2.40;;
57467;SDS011;43311;51.196;7.518;2024-02-15T10:34:04;13.52;;;5.53;;
57467;SDS011;43311;51.196;7.518;2024-02-15T10:36:30;14.70;;;3.97;;
57467;SDS011;43311;51.196;7.518;2024-02-15T10:39:11;6.80;;;2.33;;
57467;SDS011;43311;51.196;7.518;2024-02-15T10:41:51;7.78;;;1.85;;
57467;SDS011;43311;51.196;7.518;2024-02-15T10:44:18;13.80;;;3.33;;
57467;SDS011;43311;51.196;7.518;2024-02-15T10:46:45;6.43;;;2.05;;
57467;SDS011;43311;51.196;7.518;2024-02-15T10:49:16;6.53;;;2.40;;
57467;SDS011;43311;51.196;7.518;2024-02-15T10:51:47;3.38;;;1.73;;
57467;SDS011;43311;51.196;7.518;2024-02-15T10:54:15;7.47;;;2.47;;
57467;SDS011;43311;51.196;7.518;2024-02-15T10:56:51;5.30;;;1.67;;
57467;SDS011;43311;51.196;7.518;2024-02-15T10:59:21;7.60;;;2.00;;
57467;SDS011;43311;51.196;7.518;2024-02-15T11:01:56;7.10;;;1.65;;
57467;SDS011;43311;51.196;7.518;2024-02-15T11:04:24;5.10;;;1.73;;
57467;SDS011;43311;51.196;7.518;2024-02-15T11:06:57;5.63;;;1.70;;
57467;SDS011;43311;51.196;7.518;2024-02-15T11:09:23;5.15;;;2.15;;
57467;SDS011;43311;51.196;7.518;2024-02-15T11:11:52;7.85;;;1.60;;
57467;SDS011;43311;51.196;7.518;2024-02-15T11:14:30;4.38;;;1.40;;
57467;SDS011;43311;51.196;7.518;2024-02-15T11:17:00;7.03;;;1.67;;
57467;SDS011;43311;51.196;7.518;2024-02-15T11:22:10;3.72;;;1.50;;
57467;SDS011;43311;51.196;7.518;2024-02-15T11:24:49;3.88;;;1.33;;
57467;SDS011;43311;51.196;7.518;2024-02-15T11:27:25;2.75;;;1.33;;
57467;SDS011;43311;51.196;7.518;2024-02-15T11:35:07;5.82;;;2.00;;
57467;SDS011;43311;51.196;7.518;2024-02-15T11:37:48;3.28;;;1.42;;
57467;SDS011;43311;51.196;7.518;2024-02-15T11:40:27;4.70;;;1.38;;
57467;SDS011;43311;51.196;7.518;2024-02-15T11:42:58;9.10;;;2.05;;
57467;SDS011;43311;51.196;7.518;2024-02-15T11:45:25;8.10;;;1.92;;
57467;SDS011;43311;51.196;7.518;2024-02-15T11:47:52;11.05;;;1.98;;
57467;SDS011;43311;51.196;7.518;2024-02-15T11:50:19;5.57;;;1.52;;
57467;SDS011;43311;51.196;7.518;2024-02-15T11:52:46;3.67;;;1.00;;
57467;SDS011;43311;51.196;7.518;2024-02-15T11:55:14;2.80;;;1.23;;
57467;SDS011;43311;51.196;7.518;2024-02-15T11:57:54;5.32;;;1.50;;
57467;SDS011;43311;51.196;7.518;2024-02-15T12:00:30;5.70;;;1.85;;
57467;SDS011;43311;51.196;7.518;2024-02-15T12:03:15;3.50;;;1.45;;
57467;SDS011;43311;51.196;7.518;2024-02-15T12:05:59;4.18;;;1.35;;
57467;SDS011;43311;51.196;7.518;2024-02-15T12:08:48;6.93;;;1.50;;
57467;SDS011;43311;51.196;7.518;2024-02-15T12:11:32;8.13;;;1.40;;
57467;SDS011;43311;51.196;7.518;2024-02-15T12:14:17;4.75;;;0.93;;
57467;SDS011;43311;51.196;7.518;2024-02-15T12:17:02;3.97;;;1.30;;
57467;SDS011;43311;51.196;7.518;2024-02-15T12:19:48;5.90;;;2.35;;
57467;SDS011;43311;51.196;7.518;2024-02-15T12:22:16;6.50;;;1.50;;
57467;SDS011;43311;51.196;7.518;2024-02-15T12:24:52;5.05;;;1.27;;
57467;SDS011;43311;51.196;7.518;2024-02-15T12:27:19;4.32;;;1.80;;
57467;SDS011;43311;51.196;7.518;2024-02-15T12:29:45;4.95;;;1.45;;
57467;SDS011;43311;51.196;7.518;2024-02-15T12:32:23;7.63;;;1.33;;
57467;SDS011;43311;51.196;7.518;2024-02-15T12:34:51;4.25;;;1.40;;
57467;SDS011;43311;51.196;7.518;2024-02-15T12:37:17;4.75;;;1.23;;
57467;SDS011;43311;51.196;7.518;2024-02-15T12:39:45;5.38;;;1.40;;
57467;SDS011;43311;51.196;7.518;2024-02-15T12:42:14;5.93;;;1.40;;
57467;SDS011;43311;51.196;7.518;2024-02-15T12:44:43;5.03;;;1.20;;
57467;SDS011;43311;51.196;7.518;2024-02-15T12:47:21;7.63;;;1.30;;
57467;SDS011;43311;51.196;7.518;2024-02-15T12:49:50;6.47;;;1.60;;
57467;SDS011;43311;51.196;7.518;2024-02-15T12:52:58;2.45;;;1.35;;
57467;SDS011;43311;51.196;7.518;2024-02-15T12:57:41;4.35;;;1.20;;
57467;SDS011;43311;51.196;7.518;2024-02-15T13:00:11;3.55;;;1.30;;
57467;SDS011;43311;51.196;7.518;2024-02-15T13:02:42;9.50;;;1.98;;
57467;SDS011;43311;51.196;7.518;2024-02-15T13:05:13;2.97;;;1.40;;
57467;SDS011;43311;51.196;7.518;2024-02-15T13:07:47;4.75;;;1.67;;
57467;SDS011;43311;51.196;7.518;2024-02-15T13:10:13;6.22;;;1.65;;
57467;SDS011;43311;51.196;7.518;2024-02-15T13:12:40;4.32;;;1.45;;
57467;SDS011;43311;51.196;7.518;2024-02-15T13:15:06;5.88;;;1.70;;
57467;SDS011;43311;51.196;7.518;2024-02-15T13:17:37;5.00;;;1.60;;
57467;SDS011;43311;51.196;7.518;2024-02-15T13:20:03;8.50;;;1.77;;
57467;SDS011;43311;51.196;7.518;2024-02-15T13:22:38;2.70;;;1.83;;
57467;SDS011;43311;51.196;7.518;2024-02-15T13:25:04;5.15;;;1.58;;
57467;SDS011;43311;51.196;7.518;2024-02-15T13:29:58;3.92;;;2.03;;
57467;SDS011;43311;51.196;7.518;2024-02-15T13:32:23;6.45;;;1.52;;
57467;SDS011;43311;51.196;7.518;2024-02-15T13:34:49;6.05;;;1.38;;
57467;SDS011;43311;51.196;7.518;2024-02-15T13:37:20;3.42;;;1.67;;
57467;SDS011;43311;51.196;7.518;2024-02-15T13:39:48;6.15;;;1.23;;
57467;SDS011;43311;51.196;7.518;2024-02-15T13:42:14;2.95;;;1.42;;
57467;SDS011;43311;51.196;7.518;2024-02-15T13:44:40;2.70;;;1.50;;
57467;SDS011;43311;51.196;7.518;2024-02-15T13:47:05;2.47;;;1.63;;
57467;SDS011;43311;51.196;7.518;2024-02-15T13:49:31;5.90;;;1.65;;
57467;SDS011;43311;51.196;7.518;2024-02-15T13:51:57;3.85;;;1.67;;
57467;SDS011;43311;51.196;7.518;2024-02-15T13:54:27;3.13;;;1.30;;
57467;SDS011;43311;51.196;7.518;2024-02-15T13:56:54;3.92;;;1.38;;
57467;SDS011;43311;51.196;7.518;2024-02-15T13:59:20;5.22;;;2.03;;
57467;SDS011;43311;51.196;7.518;2024-02-15T14:01:45;2.28;;;1.30;;
57467;SDS011;43311;51.196;7.518;2024-02-15T14:04:14;5.10;;;1.38;;
57467;SDS011;43311;51.196;7.518;2024-02-15T14:06:41;3.55;;;1.38;;
57467;SDS011;43311;51.196;7.518;2024-02-15T14:09:09;5.63;;;2.00;;
57467;SDS011;43311;51.196;7.518;2024-02-15T14:11:38;5.32;;;1.33;;
57467;SDS011;43311;51.196;7.518;2024-02-15T14:14:04;4.22;;;1.60;;
57467;SDS011;43311;51.196;7.518;2024-02-15T14:16:30;3.08;;;1.30;;
57467;SDS011;43311;51.196;7.518;2024-02-15T14:18:56;4.55;;;1.50;;
57467;SDS011;43311;51.196;7.518;2024-02-15T14:21:21;4.82;;;1.40;;
57467;SDS011;43311;51.196;7.518;2024-02-15T14:23:47;4.47;;;1.25;;
57467;SDS011;43311;51.196;7.518;2024-02-15T14:26:12;4.72;;;1.80;;
57467;SDS011;43311;51.196;7.518;2024-02-15T14:28:37;5.82;;;1.60;;
57467;SDS011;43311;51.196;7.518;2024-02-15T14:31:07;3.00;;;1.65;;
57467;SDS011;43311;51.196;7.518;2024-02-15T14:33:51;3.72;;;1.30;;
57467;SDS011;43311;51.196;7.518;2024-02-15T14:36:16;3.03;;;1.10;;
57467;SDS011;43311;51.196;7.518;2024-02-15T14:38:43;5.07;;;1.30;;
57467;SDS011;43311;51.196;7.518;2024-02-15T14:41:09;4.20;;;1.33;;
57467;SDS011;43311;51.196;7.518;2024-02-15T14:43:36;4.75;;;1.35;;
57467;SDS011;43311;51.196;7.518;2024-02-15T14:46:02;3.70;;;1.10;;
57467;SDS011;43311;51.196;7.518;2024-02-15T14:48:30;4.25;;;1.00;;
57467;SDS011;43311;51.196;7.518;2024-02-15T14:50:56;4.75;;;1.42;;
57467;SDS011;43311;51.196;7.518;2024-02-15T14:53:23;1.98;;;0.90;;
57467;SDS011;43311;51.196;7.518;2024-02-15T14:55:49;3.00;;;1.05;;
57467;SDS011;43311;51.196;7.518;2024-02-15T14:58:16;3.87;;;1.00;;
57467;SDS011;43311;51.196;7.518;2024-02-15T15:00:42;5.50;;;1.33;;
57467;SDS011;43311;51.196;7.518;2024-02-15T15:03:09;7.93;;;1.20;;
57467;SDS011;43311;51.196;7.518;2024-02-15T15:05:38;5.95;;;1.30;;
57467;SDS011;43311;51.196;7.518;2024-02-15T15:08:22;3.65;;;1.38;;
57467;SDS011;43311;51.196;7.518;2024-02-15T15:11:26;4.15;;;1.55;;
57467;SDS011;43311;51.196;7.518;2024-02-15T15:14:10;6.05;;;1.10;;